Latest Coastal Weather Observations for Wyndham Airport

IDW60701

Issued at 4:05 pm WST Tuesday 23 September 2014 (issued every 10 minutes, with the page automatically refreshed every 10 minutes)

About coastal observations | Map of coastal stations | Coastal observations for WA | Marine services | Other Formats
Station Details ID: 001006 Name: WYNDHAM AERO Lat: -15.51 Lon: 128.15 Height: 3.8 m
Data from the previous 72 hours. | See also: Recent months for locations in Western Australia
Date/Time
WST
Temp

°C
Wind Pressure Rain
since 9am
mm
Weather Cloud Vis
km
Sea
Height
m
Swell
Dir
 
Speed
knots
Gust
knots
hPa Trend Height
m
Period
s
Dir
23/04:00pm 31.7 N 19 24 1008.0 - 0.0 - - - - - - -
23/03:30pm 34.8 N 17 23 1007.9 - 0.0 - - - - - - -
23/03:22pm 35.8 N 17 23 1007.8 - 0.0 - - - - - - -
23/03:00pm 38.4 NNW 8 13 1007.9 - 0.0 - - - - - - -
23/02:30pm 39.9 WNW 6 11 1008.0 - 0.0 - - - - - - -
23/02:00pm 38.9 SE 5 7 1008.3 - 0.0 - - - - - - -
23/01:30pm 38.8 WNW 5 9 1008.7 - 0.0 - - - - - - -
23/01:00pm 37.6 SSE 5 12 1009.2 - 0.0 - - - - - - -
23/12:30pm 38.2 SW 7 11 1009.7 - 0.0 - - - - - - -
23/12:00pm 37.3 WSW 6 10 1010.3 - 0.0 - - - - - - -
23/11:30am 36.5 S 7 11 1010.7 - 0.0 - - - - - - -
23/11:00am 35.3 NW 6 11 1011.4 - 0.0 - - - - - - -
23/10:30am 34.4 S 5 8 1011.9 - 0.0 - - - - - - -
23/10:00am 34.5 W 6 11 1012.3 - 0.0 - - - - - - -
23/09:30am 33.2 WNW 8 14 1012.7 - 0.0 - - - - - - -
23/09:00am 32.3 WNW 7 11 1012.8 - 0.0 - - - - - - -
23/08:30am 31.0 WNW 6 8 1013.0 - 0.0 - - - - - - -
23/08:00am 30.1 W 5 7 1012.9 - 0.0 - - - - - - -
23/07:30am 28.7 W 3 5 1012.9 - 0.0 - - - - - - -
23/07:00am 27.2 SW 4 5 1012.7 - 0.0 - - - - - - -
23/06:30am 25.8 SW 5 6 1012.4 - 0.0 - - - - - - -
23/06:00am 22.9 CALM 0 0 1012.1 - 0.0 - - - - - - -
23/05:30am 21.9 CALM 0 1 1011.7 - 0.0 - - - - - - -
23/05:00am 22.3 WNW 3 4 1011.5 - 0.0 - - - - - - -
23/04:30am 21.4 W 5 5 1011.3 - 0.0 - - - - - - -
23/04:00am 21.8 WNW 3 4 1011.0 - 0.0 - - - - - - -
23/03:30am 21.7 ENE 3 4 1010.8 - 0.0 - - - - - - -
23/03:00am 22.1 E 6 7 1010.7 - 0.0 - - - - - - -
23/02:30am 22.3 E 6 7 1010.5 - 0.0 - - - - - - -
23/02:00am 22.6 E 7 8 1010.6 - 0.0 - - - - - - -
23/01:30am 22.9 E 7 8 1010.9 - 0.0 - - - - - - -
23/01:00am 23.4 E 6 7 1011.1 - 0.0 - - - - - - -
23/12:30am 23.8 E 6 8 1011.5 - 0.0 - - - - - - -
23/12:00am 23.3 E 7 8 1011.8 - 0.0 - - - - - - -
 
Date/Time
WST
Temp

°C
Wind Pressure Rain
since 9am
mm
Weather Cloud Vis
km
Sea
Height
m
Swell
Dir
 
Speed
knots
Gust
knots
hPa Trend Height
m
Period
s
Dir
22/11:30pm 23.9 E 7 8 1012.1 - 0.0 - - - - - - -
22/11:00pm 24.2 E 5 6 1012.2 - 0.0 - - - - - - -
22/10:30pm 24.8 SW 1 3 1012.3 - 0.0 - - - - - - -
22/10:00pm 25.3 SE 1 4 1012.3 - 0.0 - - - - - - -
22/09:30pm 27.2 N 6 7 1012.3 - 0.0 - - - - - - -
22/09:00pm 27.2 NNW 7 9 1012.2 - 0.0 - - - - - - -
22/08:30pm 27.9 NW 10 16 1012.2 - 0.0 - - - - - - -
22/08:00pm 28.9 ESE 6 11 1011.4 - 0.0 - - - - - - -
22/07:30pm 29.2 W 6 11 1011.3 - 0.0 - - - - - - -
22/07:00pm 29.4 NNE 14 19 1010.8 - 0.0 - - - - - - -
22/06:30pm 30.1 N 11 16 1010.7 - 0.0 - - - - - - -
22/06:00pm 30.6 N 13 17 1010.6 - 0.0 - - - - - - -
22/05:30pm 31.6 N 13 17 1010.3 - 0.0 - - - - - - -
22/05:00pm 32.9 N 11 15 1010.0 - 0.0 - - - - - - -
22/04:30pm 34.3 N 12 16 1009.6 - 0.0 - - - - - - -
22/04:00pm 35.4 NNW 11 15 1009.5 - 0.0 - - - - - - -
22/03:30pm 36.7 NNW 12 15 1009.3 - 0.0 - - - - - - -
22/03:00pm 37.0 NE 2 5 1009.3 - 0.0 - - - - - - -
22/02:30pm 36.9 ESE 4 8 1009.5 - 0.0 - - - - - - -
22/02:00pm 37.0 E 6 11 1009.9 - 0.0 - - - - - - -
22/01:30pm 36.6 ESE 6 11 1010.3 - 0.0 - - - - - - -
22/01:00pm 35.9 NE 8 12 1011.0 - 0.0 - - - - - - -
22/12:30pm 36.2 ENE 9 13 1011.3 - 0.0 - - - - - - -
22/12:00pm 35.3 E 9 14 1012.0 - 0.0 - - - - - - -
22/11:30am 35.2 NNE 5 8 1012.6 - 0.0 - - - - - - -
22/11:00am 34.6 E 8 13 1013.3 - 0.0 - - - - - - -
22/10:30am 34.3 E 9 14 1013.8 - 0.0 - - - - - - -
22/10:00am 33.3 E 9 13 1014.3 - 0.0 - - - - - - -
22/09:30am 32.9 E 11 16 1014.7 - 0.0 - - - - - - -
22/09:00am 33.0 E 11 17 1014.9 - 0.0 - - - - - - -
22/08:30am 32.4 E 12 17 1015.2 - 0.0 - - - - - - -
22/08:00am 31.0 ESE 7 9 1015.3 - 0.0 - - - - - - -
22/07:30am 28.3 E 5 7 1015.5 - 0.0 - - - - - - -
22/07:00am 27.1 ESE 6 7 1015.3 - 0.0 - - - - - - -
22/06:30am 24.2 ESE 6 6 1014.9 - 0.0 - - - - - - -
22/06:00am 21.8 E 6 7 1014.2 - 0.0 - - - - - - -
22/05:30am 20.4 ENE 4 6 1013.7 - 0.0 - - - - - - -
22/05:00am 21.2 CALM 0 0 1013.3 - 0.0 - - - - - - -
22/04:30am 21.4 S 3 5 1012.7 - 0.0 - - - - - - -
22/04:00am 22.1 ENE 4 5 1012.5 - 0.0 - - - - - - -
22/03:30am 22.4 E 7 8 1012.2 - 0.0 - - - - - - -
22/03:00am 22.2 ESE 6 7 1011.9 - 0.0 - - - - - - -
22/02:30am 22.8 E 5 7 1011.9 - 0.0 - - - - - - -
22/02:00am 22.1 E 5 7 1011.8 - 0.0 - - - - - - -
22/01:30am 23.5 E 8 9 1011.8 - 0.0 - - - - - - -
22/01:00am 24.5 ESE 11 13 1011.9 - 0.0 - - - - - - -
22/12:30am 22.9 CALM 0 0 1011.9 - 0.0 - - - - - - -
22/12:00am 24.5 W 4 6 1011.8 - 0.0 - - - - - - -
 
Date/Time
WST
Temp

°C
Wind Pressure Rain
since 9am
mm
Weather Cloud Vis
km
Sea
Height
m
Swell
Dir
 
Speed
knots
Gust
knots
hPa Trend Height
m
Period
s
Dir
21/11:30pm 23.6 N 1 5 1012.1 - 0.0 - - - - - - -
21/11:00pm 24.9 E 4 5 1012.4 - 0.0 - - - - - - -
21/10:30pm 25.8 E 7 9 1012.7 - 0.0 - - - - - - -
21/10:00pm 26.4 ESE 10 12 1012.9 - 0.0 - - - - - - -
21/09:30pm 26.5 E 8 10 1012.8 - 0.0 - - - - - - -
21/09:00pm 28.6 SE 6 10 1012.6 - 0.0 - - - - - - -
21/08:30pm 30.2 NE 2 7 1012.3 - 0.0 - - - - - - -
21/08:00pm 29.7 ESE 8 11 1012.1 - 0.0 - - - - - - -
21/07:30pm 31.1 ESE 4 6 1011.7 - 0.0 - - - - - - -
21/07:00pm 32.0 N 8 11 1011.4 - 0.0 - - - - - - -
21/06:30pm 32.1 N 7 11 1011.1 - 0.0 - - - - - - -
21/06:00pm 33.1 N 11 14 1010.7 - 0.0 - - - - - - -
21/05:30pm 33.9 N 10 13 1010.2 - 0.0 - - - - - - -
21/05:00pm 35.3 N 11 16 1009.7 - 0.0 - - - - - - -
21/04:30pm 36.6 N 13 17 1009.6 - 0.0 - - - - - - -
21/04:00pm 38.7 ENE 8 13 1009.4 - 0.0 - - - - - - -
21/03:30pm 39.1 W 6 11 1009.2 - 0.0 - - - - - - -
21/03:00pm 38.9 WNW 10 17 1009.2 - 0.0 - - - - - - -
21/02:30pm 39.0 NNW 9 12 1009.4 - 0.0 - - - - - - -
21/02:00pm 39.3 NW 7 13 1009.6 - 0.0 - - - - - - -
21/01:30pm 38.8 ESE 5 8 1010.0 - 0.0 - - - - - - -
21/01:00pm 39.0 WSW 7 11 1010.5 - 0.0 - - - - - - -
21/12:30pm 37.7 WNW 7 11 1010.9 - 0.0 - - - - - - -
21/12:00pm 37.4 SSW 4 9 1011.6 - 0.0 - - - - - - -
21/11:30am 36.5 W 7 11 1012.2 - 0.0 - - - - - - -
21/11:00am 35.9 W 6 10 1012.8 - 0.0 - - - - - - -
21/10:30am 34.9 WSW 7 10 1013.4 - 0.0 - - - - - - -
21/10:00am 34.4 W 6 9 1013.7 - 0.0 - - - - - - -
21/09:30am 33.8 W 8 10 1014.3 - 0.0 - - - - - - -
21/09:00am 32.4 W 5 7 1014.7 - 0.0 - - - - - - -
21/08:30am 31.1 SSE 3 5 1015.0 - 0.0 - - - - - - -
21/08:00am 29.5 ESE 6 9 1015.0 - 0.0 - - - - - - -
21/07:30am 27.5 ESE 10 14 1014.9 - 0.0 - - - - - - -
21/07:00am 25.9 ESE 11 15 1014.7 - 0.0 - - - - - - -
21/06:30am 24.9 E 9 11 1014.0 - 0.0 - - - - - - -
21/06:00am 22.4 ESE 8 12 1013.8 - 0.0 - - - - - - -
21/05:30am 21.4 E 9 11 1013.2 - 0.0 - - - - - - -
21/05:00am 21.5 E 9 11 1012.8 - 0.0 - - - - - - -
21/04:30am 21.6 ESE 9 11 1012.4 - 0.0 - - - - - - -
21/04:00am 21.1 CALM 0 0 1012.0 - 0.0 - - - - - - -
21/03:30am 22.4 WSW 2 4 1011.6 - 0.0 - - - - - - -
21/03:00am 23.1 SW 3 5 1011.7 - 0.0 - - - - - - -
21/02:30am 22.9 WSW 3 5 1011.8 - 0.0 - - - - - - -
21/02:00am 24.9 NNW 3 5 1011.8 - 0.0 - - - - - - -
21/01:30am 25.3 SW 7 10 1011.9 - 0.0 - - - - - - -
21/01:00am 24.8 S 5 8 1011.8 - 0.0 - - - - - - -
21/12:30am 24.6 WSW 10 11 1012.0 - 0.0 - - - - - - -
21/12:00am 23.6 W 5 6 1011.9 - 0.0 - - - - - - -
 
Date/Time
WST
Temp

°C
Wind Pressure Rain
since 9am
mm
Weather Cloud Vis
km
Sea
Height
m
Swell
Dir
 
Speed
knots
Gust
knots
hPa Trend Height
m
Period
s
Dir
20/11:30pm 24.3 NNW 5 5 1012.1 - 0.0 - - - - - - -
20/11:00pm 24.8 N 4 5 1012.6 - 0.0 - - - - - - -
20/10:30pm 25.4 N 4 5 1012.8 - 0.0 - - - - - - -
20/10:00pm 26.2 W 6 9 1012.9 - 0.0 - - - - - - -
20/09:30pm 26.1 SW 4 6 1013.0 - 0.0 - - - - - - -
20/09:00pm 26.4 SSW 7 7 1012.9 - 0.0 - - - - - - -
20/08:30pm 27.8 SSW 7 8 1012.9 - 0.0 - - - - - - -
20/08:00pm 28.6 SSW 6 7 1012.6 - 0.0 - - - - - - -
20/07:30pm 31.8 SSE 5 10 1012.3 - 0.0 - - - - - - -
20/07:00pm 32.4 NNE 9 11 1011.9 - 0.0 - - - - - - -
20/06:30pm 32.5 N 11 14 1011.6 - 0.0 - - - - - - -
20/06:00pm 33.0 N 13 16 1011.1 - 0.0 - - - - - - -
20/05:30pm 33.6 N 14 17 1010.8 - 0.0 - - - - - - -
20/05:00pm 34.6 N 12 16 1010.5 - 0.0 - - - - - - -
20/04:30pm 35.8 N 11 14 1010.2 - 0.0 - - - - - - -

Other Formats:

Comma delimited format used in spreadsheet applications
http://www.bom.gov.au/fwo/IDW60701/IDW60701.95214.axf

JavaScript Object Notation format (JSON) in row-major order
http://www.bom.gov.au/fwo/IDW60701/IDW60701.95214.json